createdAt,value
2022-12-03T00:00:38.025Z,53.82
2022-12-03T00:01:38.006Z,54.30
2022-12-03T00:02:38.121Z,54.95
2022-12-03T00:03:38.023Z,54.30
2022-12-03T00:04:37.981Z,54.14
2022-12-03T00:05:41.721Z,54.14
2022-12-03T00:06:38.979Z,53.98
2022-12-03T00:07:38.027Z,54.14
2022-12-03T00:08:37.983Z,53.82
2022-12-03T00:09:37.983Z,53.50
2022-12-03T00:10:37.956Z,53.98
2022-12-03T00:11:37.967Z,53.98
2022-12-03T00:12:37.927Z,54.62
2022-12-03T00:13:37.915Z,54.62
2022-12-03T00:14:44.204Z,53.98
2022-12-03T00:15:38.964Z,53.66
2022-12-03T00:16:37.930Z,53.82
2022-12-03T00:17:37.904Z,53.50
2022-12-03T00:18:37.892Z,53.33
2022-12-03T00:19:37.892Z,54.46
2022-12-03T00:20:38.203Z,54.30
2022-12-03T00:21:37.910Z,54.14
2022-12-03T00:22:37.851Z,54.14
2022-12-03T00:23:42.043Z,54.14
2022-12-03T00:24:37.845Z,54.46
2022-12-03T00:25:37.837Z,53.98
2022-12-03T00:26:37.882Z,54.46
2022-12-03T00:27:37.851Z,53.66
2022-12-03T00:28:37.848Z,54.46
2022-12-03T00:29:37.802Z,54.30
2022-12-03T00:30:37.968Z,53.50
2022-12-03T00:31:37.834Z,53.66
2022-12-03T00:32:37.830Z,55.27
2022-12-03T00:33:37.785Z,54.30
2022-12-03T00:34:37.819Z,53.98
2022-12-03T00:35:37.760Z,54.62
2022-12-03T00:36:37.764Z,53.82
2022-12-03T00:37:37.781Z,53.33
2022-12-03T00:38:37.802Z,52.85
2022-12-03T00:39:37.732Z,53.82
2022-12-03T00:40:37.716Z,53.50
2022-12-03T00:41:37.759Z,53.82
2022-12-03T00:42:37.742Z,55.11
2022-12-03T00:43:37.750Z,54.30
2022-12-03T00:44:37.770Z,54.30
2022-12-03T00:45:37.671Z,54.95
2022-12-03T00:46:37.749Z,53.82
2022-12-03T00:47:37.681Z,54.14
2022-12-03T00:48:37.703Z,54.14
2022-12-03T00:49:37.702Z,54.62
2022-12-03T00:50:37.742Z,54.79
2022-12-03T00:51:37.671Z,54.95
2022-12-03T00:52:37.681Z,55.59
2022-12-03T00:53:37.662Z,54.30
2022-12-03T00:54:37.662Z,53.50
2022-12-03T00:55:37.664Z,53.50
2022-12-03T00:56:37.704Z,52.69
2022-12-03T00:57:37.660Z,53.66
2022-12-03T00:58:37.630Z,54.79
2022-12-03T00:59:37.618Z,56.40
2022-12-03T01:00:37.642Z,54.30
2022-12-03T01:01:37.678Z,53.33
2022-12-03T01:02:37.686Z,53.33
2022-12-03T01:03:37.604Z,53.17
2022-12-03T01:04:37.725Z,53.17
2022-12-03T01:05:37.563Z,54.14
2022-12-03T01:06:37.571Z,53.98
2022-12-03T01:07:37.611Z,53.82
2022-12-03T01:08:37.625Z,54.30
2022-12-03T01:09:37.527Z,52.37
2022-12-03T01:10:37.511Z,54.30
2022-12-03T01:11:37.549Z,54.95
2022-12-03T01:12:37.514Z,53.98
2022-12-03T01:13:37.515Z,53.50
2022-12-03T01:14:37.541Z,53.82
2022-12-03T01:15:37.503Z,54.46
2022-12-03T01:16:37.586Z,54.46
2022-12-03T01:17:37.495Z,53.66
2022-12-03T01:18:37.508Z,53.98
2022-12-03T01:19:37.500Z,53.98
2022-12-03T01:20:37.748Z,54.95
2022-12-03T01:21:37.458Z,54.14
2022-12-03T01:22:37.451Z,53.50
2022-12-03T01:23:37.459Z,54.95
2022-12-03T01:24:37.455Z,54.46
2022-12-03T01:25:37.452Z,53.98
2022-12-03T01:26:37.499Z,53.82
2022-12-03T01:27:37.414Z,53.82
2022-12-03T01:28:37.441Z,53.82
2022-12-03T01:29:37.410Z,54.46
2022-12-03T01:30:37.424Z,53.98
2022-12-03T01:31:37.417Z,53.82
2022-12-03T01:32:37.463Z,53.33
2022-12-03T01:33:37.395Z,53.50
2022-12-03T01:34:37.394Z,54.46
2022-12-03T01:35:37.354Z,54.30
2022-12-03T01:36:37.354Z,54.14
2022-12-03T01:37:37.394Z,54.14
2022-12-03T01:38:37.423Z,54.79
2022-12-03T01:39:37.357Z,54.62
2022-12-03T01:40:37.352Z,53.33
2022-12-03T01:41:37.327Z,53.17
2022-12-03T01:42:37.313Z,53.82
2022-12-03T01:43:37.331Z,53.33
2022-12-03T01:44:37.390Z,54.95
2022-12-03T01:45:37.297Z,53.98
2022-12-03T01:46:37.346Z,53.33
2022-12-03T01:47:37.253Z,53.98
2022-12-03T01:48:37.302Z,53.98
2022-12-03T01:49:37.297Z,53.98
2022-12-03T01:50:37.318Z,54.30
2022-12-03T01:51:37.272Z,54.14
2022-12-03T01:52:37.254Z,54.95
2022-12-03T01:53:37.252Z,53.98
2022-12-03T01:54:37.255Z,54.79
2022-12-03T01:55:37.263Z,54.62
2022-12-03T01:56:37.318Z,53.66
2022-12-03T01:57:37.231Z,54.30
2022-12-03T01:58:37.224Z,53.66
2022-12-03T01:59:37.212Z,53.98
2022-12-03T02:00:37.206Z,53.33
2022-12-03T02:01:37.218Z,52.85
2022-12-03T02:02:37.250Z,52.69
2022-12-03T02:03:37.280Z,53.98
2022-12-03T02:04:37.154Z,54.30
2022-12-03T02:05:37.157Z,53.66
2022-12-03T02:06:37.124Z,53.50
2022-12-03T02:07:37.196Z,55.11
2022-12-03T02:08:37.243Z,54.30
2022-12-03T02:09:37.126Z,54.30
2022-12-03T02:10:37.139Z,54.62
2022-12-03T02:11:37.094Z,54.14
2022-12-03T02:12:37.091Z,54.30
2022-12-03T02:13:37.069Z,55.75
2022-12-03T02:14:37.154Z,55.43
2022-12-03T02:15:37.075Z,53.98
2022-12-03T02:16:37.163Z,53.98
2022-12-03T02:17:37.074Z,53.17
2022-12-03T02:18:37.045Z,53.82
2022-12-03T02:19:37.103Z,53.98
2022-12-03T02:20:37.124Z,54.14
2022-12-03T02:21:37.056Z,54.46
2022-12-03T02:22:37.026Z,54.62
2022-12-03T02:23:37.035Z,54.62
2022-12-03T02:24:37.036Z,54.14
2022-12-03T02:25:37.023Z,54.79
2022-12-03T02:26:37.354Z,54.46
2022-12-03T02:27:36.997Z,54.14
2022-12-03T02:28:36.999Z,54.14
2022-12-03T02:29:37.009Z,53.66
2022-12-03T02:30:36.953Z,53.50
2022-12-03T02:31:37.011Z,54.95
2022-12-03T02:32:37.035Z,54.79
2022-12-03T02:33:36.955Z,54.95
2022-12-03T02:34:36.955Z,53.33
2022-12-03T02:35:36.946Z,54.30
2022-12-03T02:36:36.955Z,54.14
2022-12-03T02:37:36.928Z,53.33
2022-12-03T02:38:36.995Z,53.50
2022-12-03T02:39:36.919Z,53.98
2022-12-03T02:40:36.925Z,54.30
2022-12-03T02:41:36.890Z,53.66
2022-12-03T02:42:36.914Z,54.14
2022-12-03T02:43:36.872Z,54.95
2022-12-03T02:44:36.953Z,54.79
2022-12-03T02:45:36.889Z,54.30
2022-12-03T02:46:36.894Z,53.50
2022-12-03T02:47:36.837Z,53.33
2022-12-03T02:48:36.856Z,53.82
2022-12-03T02:49:36.831Z,52.69
2022-12-03T02:50:36.899Z,53.98
2022-12-03T02:51:36.814Z,53.98
2022-12-03T02:52:36.819Z,53.82
2022-12-03T02:53:36.825Z,54.62
2022-12-03T02:54:36.815Z,53.82
2022-12-03T02:55:37.290Z,53.82
2022-12-03T02:56:36.875Z,53.33
2022-12-03T02:57:36.802Z,53.82
2022-12-03T02:58:36.796Z,54.14
2022-12-03T02:59:36.809Z,54.62
2022-12-03T03:00:36.792Z,53.17
2022-12-03T03:01:36.861Z,54.95
2022-12-03T03:02:36.829Z,54.62
2022-12-03T03:03:36.725Z,54.30
2022-12-03T03:04:36.755Z,54.14
2022-12-03T03:05:36.753Z,54.14
2022-12-03T03:06:36.713Z,54.79
2022-12-03T03:07:36.743Z,55.11
2022-12-03T03:08:36.753Z,54.30
2022-12-03T03:09:36.707Z,54.46
2022-12-03T03:10:36.703Z,54.14
2022-12-03T03:11:36.728Z,54.46
2022-12-03T03:12:39.441Z,54.79
2022-12-03T03:13:36.651Z,53.98
2022-12-03T03:14:36.690Z,53.01
2022-12-03T03:15:36.671Z,52.37
2022-12-03T03:16:36.704Z,54.14
2022-12-03T03:17:36.638Z,53.98
2022-12-03T03:18:36.649Z,54.79
2022-12-03T03:19:36.610Z,53.82
2022-12-03T03:20:36.694Z,53.50
2022-12-03T03:21:36.637Z,53.82
2022-12-03T03:22:36.610Z,53.82
2022-12-03T03:23:36.610Z,54.30
2022-12-03T03:24:36.574Z,54.62
2022-12-03T03:25:36.617Z,54.79
2022-12-03T03:26:36.644Z,54.46
2022-12-03T03:27:36.576Z,54.46
2022-12-03T03:28:36.561Z,53.50
2022-12-03T03:29:36.557Z,53.82
2022-12-03T03:30:36.574Z,53.33
2022-12-03T03:31:36.621Z,55.11
2022-12-03T03:32:36.722Z,54.14
2022-12-03T03:33:36.590Z,52.85
2022-12-03T03:34:36.511Z,54.30
2022-12-03T03:35:36.532Z,54.46
2022-12-03T03:36:36.528Z,54.14
2022-12-03T03:37:36.485Z,54.14
2022-12-03T03:38:36.572Z,53.98
2022-12-03T03:39:36.449Z,55.43
2022-12-03T03:40:36.495Z,54.95
2022-12-03T03:41:36.491Z,54.30
2022-12-03T03:42:36.477Z,52.69
2022-12-03T03:43:36.450Z,53.82
2022-12-03T03:44:36.470Z,54.14
2022-12-03T03:45:36.470Z,54.46
2022-12-03T03:46:36.457Z,54.46
2022-12-03T03:47:36.436Z,54.46
2022-12-03T03:48:36.423Z,53.98
2022-12-03T03:49:36.434Z,53.82
2022-12-03T03:50:36.605Z,53.66
2022-12-03T03:51:36.382Z,54.62
2022-12-03T03:52:36.418Z,53.66
2022-12-03T03:53:36.379Z,53.82
2022-12-03T03:54:36.350Z,54.46
2022-12-03T03:55:36.374Z,55.11
2022-12-03T03:56:36.413Z,54.46
2022-12-03T03:57:36.382Z,54.14
2022-12-03T03:58:36.335Z,53.66
2022-12-03T03:59:36.310Z,53.82
2022-12-03T04:00:36.333Z,53.98
2022-12-03T04:01:36.412Z,53.50
2022-12-03T04:02:36.370Z,53.01
2022-12-03T04:03:36.446Z,53.82
2022-12-03T04:04:36.450Z,54.30
2022-12-03T04:05:36.301Z,53.82
2022-12-03T04:06:36.281Z,53.33
2022-12-03T04:07:36.363Z,53.50
2022-12-03T04:08:36.363Z,53.82
2022-12-03T04:09:36.278Z,53.82
2022-12-03T04:10:36.281Z,54.95
2022-12-03T04:11:36.249Z,54.14
2022-12-03T04:12:36.264Z,53.98
2022-12-03T04:13:36.254Z,54.62
2022-12-03T04:14:36.276Z,54.46
2022-12-03T04:15:36.224Z,54.46
2022-12-03T04:16:36.262Z,54.30
2022-12-03T04:17:36.203Z,54.46
2022-12-03T04:18:36.211Z,53.33
2022-12-03T04:19:36.223Z,53.50
2022-12-03T04:20:36.239Z,54.14
2022-12-03T04:21:36.171Z,54.46
2022-12-03T04:22:36.183Z,54.14
2022-12-03T04:23:36.196Z,53.82
2022-12-03T04:24:36.165Z,54.46
2022-12-03T04:25:36.151Z,54.79
2022-12-03T04:26:36.211Z,53.17
2022-12-03T04:27:36.136Z,53.50
2022-12-03T04:28:36.135Z,53.66
2022-12-03T04:29:36.117Z,54.62
2022-12-03T04:30:36.160Z,54.95
2022-12-03T04:31:36.122Z,53.66
2022-12-03T04:32:36.197Z,53.33
2022-12-03T04:33:36.074Z,53.82
2022-12-03T04:34:36.096Z,54.46
2022-12-03T04:35:36.147Z,54.62
2022-12-03T04:36:36.064Z,53.98
2022-12-03T04:37:36.074Z,54.46
2022-12-03T04:38:36.412Z,54.30
2022-12-03T04:39:36.040Z,55.11
2022-12-03T04:40:36.053Z,54.30
2022-12-03T04:41:36.037Z,53.98
2022-12-03T04:42:36.022Z,54.30
2022-12-03T04:43:36.055Z,55.27
2022-12-03T04:44:36.086Z,54.30
2022-12-03T04:45:36.091Z,54.14
2022-12-03T04:46:36.017Z,53.82
2022-12-03T04:47:39.881Z,53.01
2022-12-03T04:48:36.015Z,53.50
2022-12-03T04:49:35.980Z,53.82
2022-12-03T04:50:36.006Z,54.46
2022-12-03T04:51:36.009Z,54.79
2022-12-03T04:52:36.002Z,53.82
2022-12-03T04:53:36.385Z,53.33
2022-12-03T04:54:35.967Z,53.82
2022-12-03T04:55:35.919Z,53.66
2022-12-03T04:56:35.992Z,54.30
2022-12-03T04:57:35.931Z,54.14
2022-12-03T04:58:35.932Z,54.46
2022-12-03T04:59:35.904Z,53.98
2022-12-03T05:00:35.893Z,53.82
2022-12-03T05:01:35.959Z,54.30
2022-12-03T05:02:36.005Z,54.14
2022-12-03T05:03:35.883Z,53.98
2022-12-03T05:04:35.911Z,53.66
2022-12-03T05:05:35.861Z,53.82
2022-12-03T05:06:35.854Z,53.98
2022-12-03T05:07:35.941Z,56.72
2022-12-03T05:08:35.893Z,54.95
2022-12-03T05:09:35.834Z,54.95
2022-12-03T05:10:35.848Z,54.95
2022-12-03T05:11:35.847Z,54.14
2022-12-03T05:12:35.828Z,53.66
2022-12-03T05:13:35.807Z,54.79
2022-12-03T05:14:35.875Z,53.82
2022-12-03T05:15:35.808Z,54.62
2022-12-03T05:16:35.858Z,54.46
2022-12-03T05:17:35.777Z,55.11
2022-12-03T05:18:35.805Z,53.98
2022-12-03T05:19:35.775Z,54.14
2022-12-03T05:20:35.823Z,53.66
2022-12-03T05:21:35.757Z,55.75
2022-12-03T05:22:35.763Z,55.43
2022-12-03T05:23:35.749Z,54.14
2022-12-03T05:24:35.742Z,54.79
2022-12-03T05:25:35.730Z,53.98
2022-12-03T05:26:35.817Z,53.82
2022-12-03T05:27:35.703Z,53.98
2022-12-03T05:28:35.715Z,54.30
2022-12-03T05:29:35.684Z,54.79
2022-12-03T05:30:35.716Z,54.62
2022-12-03T05:31:35.689Z,53.82
2022-12-03T05:32:35.729Z,54.46
2022-12-03T05:33:39.504Z,53.33
2022-12-03T05:34:36.707Z,55.11
2022-12-03T05:35:35.633Z,54.46
2022-12-03T05:36:35.679Z,53.66
2022-12-03T05:37:35.635Z,54.95
2022-12-03T05:38:35.699Z,54.14
2022-12-03T05:39:35.622Z,53.98
2022-12-03T05:40:35.636Z,54.30
2022-12-03T05:41:35.611Z,54.95
2022-12-03T05:42:35.604Z,53.33
2022-12-03T05:43:35.569Z,54.46
2022-12-03T05:44:35.878Z,54.14
2022-12-03T05:45:35.576Z,54.62
2022-12-03T05:46:35.632Z,54.30
2022-12-03T05:47:35.571Z,54.95
2022-12-03T05:48:35.575Z,55.11
2022-12-03T05:49:35.562Z,53.98
2022-12-03T05:50:35.589Z,54.30
2022-12-03T05:51:35.512Z,53.98
2022-12-03T05:52:35.532Z,53.82
2022-12-03T05:53:35.546Z,54.30
2022-12-03T05:54:35.513Z,53.98
2022-12-03T05:55:35.509Z,54.62
2022-12-03T05:56:35.589Z,54.79
2022-12-03T05:57:35.514Z,54.95
2022-12-03T05:58:35.487Z,53.66
2022-12-03T05:59:35.496Z,55.11
2022-12-03T06:00:40.571Z,54.62
2022-12-03T06:01:36.503Z,54.30
2022-12-03T06:02:35.610Z,54.46
2022-12-03T06:03:35.571Z,54.62
2022-12-03T06:04:35.429Z,53.98
2022-12-03T06:05:35.433Z,53.82
2022-12-03T06:06:35.416Z,53.98
2022-12-03T06:07:35.517Z,53.82
2022-12-03T06:08:35.427Z,55.59
2022-12-03T06:09:35.413Z,54.79
2022-12-03T06:10:35.417Z,54.79
2022-12-03T06:11:35.371Z,54.62
2022-12-03T06:12:35.389Z,54.46
2022-12-03T06:13:35.445Z,54.95
2022-12-03T06:14:35.367Z,53.98
2022-12-03T06:15:40.299Z,54.62
2022-12-03T06:16:36.435Z,54.46
2022-12-03T06:17:35.336Z,55.11
2022-12-03T06:18:35.374Z,55.27
2022-12-03T06:19:35.418Z,54.79
2022-12-03T06:20:35.340Z,56.72
2022-12-03T06:21:35.330Z,54.14
2022-12-03T06:22:35.374Z,54.30
2022-12-03T06:23:35.320Z,54.30
2022-12-03T06:24:35.331Z,54.14
2022-12-03T06:25:35.382Z,54.14
2022-12-03T06:26:35.273Z,54.46
2022-12-03T06:27:35.273Z,55.27
2022-12-03T06:28:35.291Z,53.50
2022-12-03T06:29:35.274Z,53.50
2022-12-03T06:30:35.310Z,54.14
2022-12-03T06:31:35.359Z,53.01
2022-12-03T06:32:35.266Z,54.30
2022-12-03T06:33:35.233Z,54.95
2022-12-03T06:34:35.232Z,54.46
2022-12-03T06:35:35.232Z,55.11
2022-12-03T06:36:35.223Z,54.62
2022-12-03T06:37:35.246Z,53.50
2022-12-03T06:38:35.208Z,54.46
2022-12-03T06:39:35.193Z,54.95
2022-12-03T06:40:35.153Z,55.11
2022-12-03T06:41:35.171Z,55.27
2022-12-03T06:42:35.179Z,55.75
2022-12-03T06:43:35.187Z,55.91
2022-12-03T06:44:35.126Z,53.66
2022-12-03T06:45:35.136Z,53.17
2022-12-03T06:46:35.224Z,54.62
2022-12-03T06:47:35.134Z,54.46
2022-12-03T06:48:35.130Z,53.17
2022-12-03T06:49:35.542Z,55.43
2022-12-03T06:50:35.105Z,56.07
2022-12-03T06:51:35.098Z,56.24
2022-12-03T06:52:35.081Z,55.27
2022-12-03T06:53:35.086Z,54.95
2022-12-03T06:54:35.073Z,54.95
2022-12-03T06:55:35.128Z,55.27
2022-12-03T06:56:39.037Z,55.43
2022-12-03T06:57:36.062Z,54.79
2022-12-03T06:58:35.049Z,55.59
2022-12-03T06:59:35.043Z,54.95
2022-12-03T07:00:35.024Z,53.66
2022-12-03T07:01:35.098Z,53.66
2022-12-03T07:02:35.099Z,54.14
2022-12-03T07:03:35.001Z,54.46
2022-12-03T07:04:35.010Z,53.98
2022-12-03T07:05:34.995Z,54.95
2022-12-03T07:06:34.974Z,54.30
2022-12-03T07:07:35.055Z,54.62
2022-12-03T07:08:35.011Z,56.40
2022-12-03T07:09:34.990Z,54.46
2022-12-03T07:10:34.965Z,55.75
2022-12-03T07:11:34.972Z,54.95
2022-12-03T07:12:34.963Z,54.95
2022-12-03T07:13:34.996Z,54.14
2022-12-03T07:14:34.944Z,54.79
2022-12-03T07:15:34.938Z,55.27
2022-12-03T07:16:34.969Z,55.11
2022-12-03T07:17:34.904Z,54.62
2022-12-03T07:18:34.901Z,54.95
2022-12-03T07:19:34.935Z,55.59
2022-12-03T07:20:34.906Z,55.27
2022-12-03T07:21:34.881Z,55.27
2022-12-03T07:22:34.893Z,54.14
2022-12-03T07:23:34.873Z,55.27
2022-12-03T07:24:34.866Z,54.62
2022-12-03T07:25:34.895Z,55.43
2022-12-03T07:26:34.863Z,54.46
2022-12-03T07:27:34.857Z,55.11
2022-12-03T07:28:34.859Z,56.72
2022-12-03T07:29:34.853Z,55.43
2022-12-03T07:30:34.844Z,55.91
2022-12-03T07:31:34.942Z,56.07
2022-12-03T07:32:34.827Z,55.27
2022-12-03T07:33:34.826Z,54.79
2022-12-03T07:34:34.807Z,56.40
2022-12-03T07:35:34.785Z,54.62
2022-12-03T07:36:34.794Z,54.79
2022-12-03T07:37:34.839Z,54.95
2022-12-03T07:38:34.769Z,54.62
2022-12-03T07:39:34.774Z,55.59
2022-12-03T07:40:34.763Z,55.59
2022-12-03T07:41:34.766Z,54.62
2022-12-03T07:42:34.744Z,54.79
2022-12-03T07:43:34.785Z,56.56
2022-12-03T07:44:34.767Z,56.88
2022-12-03T07:45:34.727Z,55.75
2022-12-03T07:46:34.780Z,55.91
2022-12-03T07:47:34.703Z,54.79
2022-12-03T07:48:34.722Z,56.56
2022-12-03T07:49:34.748Z,54.79
2022-12-03T07:50:34.684Z,55.27
2022-12-03T07:51:34.675Z,56.24
2022-12-03T07:52:34.676Z,56.40
2022-12-03T07:53:34.672Z,53.66
2022-12-03T07:54:34.662Z,54.14
2022-12-03T07:55:34.988Z,56.07
2022-12-03T07:56:34.641Z,54.62
2022-12-03T07:57:34.658Z,55.43
2022-12-03T07:58:34.680Z,54.14
2022-12-03T07:59:34.622Z,54.79
2022-12-03T08:00:34.644Z,55.91
2022-12-03T08:01:34.751Z,55.75
2022-12-03T08:02:34.678Z,55.75
2022-12-03T08:03:34.600Z,55.43
2022-12-03T08:04:34.579Z,55.59
2022-12-03T08:05:34.598Z,54.79
2022-12-03T08:06:34.568Z,55.11
2022-12-03T08:07:34.674Z,55.75
2022-12-03T08:08:34.577Z,54.79
2022-12-03T08:09:34.551Z,54.95
2022-12-03T08:10:34.538Z,54.62
2022-12-03T08:11:34.548Z,54.62
2022-12-03T08:12:34.536Z,54.30
2022-12-03T08:13:34.592Z,54.46
2022-12-03T08:14:34.515Z,55.59
2022-12-03T08:15:39.368Z,56.72
2022-12-03T08:16:35.604Z,56.40
2022-12-03T08:17:34.509Z,56.40
2022-12-03T08:18:34.495Z,55.59
2022-12-03T08:19:34.548Z,54.95
2022-12-03T08:20:34.475Z,55.43
2022-12-03T08:21:34.475Z,55.11
2022-12-03T08:22:34.460Z,54.46
2022-12-03T08:23:34.446Z,54.62
2022-12-03T08:24:34.444Z,56.24
2022-12-03T08:25:34.529Z,55.75
2022-12-03T08:26:34.427Z,56.40
2022-12-03T08:27:34.420Z,55.27
2022-12-03T08:28:34.424Z,55.11
2022-12-03T08:29:34.428Z,55.43
2022-12-03T08:30:34.402Z,54.14
2022-12-03T08:31:34.512Z,54.14
2022-12-03T08:32:34.403Z,57.04
2022-12-03T08:33:34.379Z,53.50
2022-12-03T08:34:34.399Z,53.17
2022-12-03T08:35:34.395Z,58.33
2022-12-03T08:36:34.367Z,55.59
2022-12-03T08:37:34.405Z,55.91
2022-12-03T08:38:34.378Z,58.17
2022-12-03T08:39:34.357Z,55.27
2022-12-03T08:40:34.343Z,56.24
2022-12-03T08:41:34.338Z,54.95
2022-12-03T08:42:34.311Z,55.59
2022-12-03T08:43:34.376Z,55.27
2022-12-03T08:44:34.319Z,54.62
2022-12-03T08:45:34.378Z,56.72
2022-12-03T08:46:34.311Z,56.56
2022-12-03T08:47:34.275Z,55.75
2022-12-03T08:48:34.274Z,55.27
2022-12-03T08:49:34.348Z,56.24
2022-12-03T08:50:34.251Z,57.85
2022-12-03T08:51:34.269Z,57.20
2022-12-03T08:52:34.257Z,55.91
2022-12-03T08:53:34.232Z,56.40
2022-12-03T08:54:34.259Z,55.59
2022-12-03T08:55:34.345Z,55.59
2022-12-03T08:56:34.234Z,56.88
2022-12-03T08:57:34.210Z,55.91
2022-12-03T08:58:34.232Z,53.98
2022-12-03T08:59:34.197Z,55.11
2022-12-03T09:00:34.197Z,54.62
2022-12-03T09:01:34.298Z,54.62
2022-12-03T09:02:34.186Z,57.69
2022-12-03T09:03:34.169Z,56.72
2022-12-03T09:04:34.230Z,55.91
2022-12-03T09:05:34.151Z,55.27
2022-12-03T09:06:34.149Z,56.88
2022-12-03T09:07:34.242Z,57.04
2022-12-03T09:08:34.145Z,56.24
2022-12-03T09:09:34.146Z,57.04
2022-12-03T09:10:34.125Z,56.40
2022-12-03T09:11:34.114Z,55.91
2022-12-03T09:12:34.114Z,56.88
2022-12-03T09:13:34.184Z,57.20
2022-12-03T09:14:34.115Z,56.88
2022-12-03T09:15:34.106Z,55.75
2022-12-03T09:16:34.170Z,56.56
2022-12-03T09:17:34.073Z,54.30
2022-12-03T09:18:34.084Z,55.11
2022-12-03T09:19:34.151Z,56.56
2022-12-03T09:20:34.066Z,52.85
2022-12-03T09:21:34.035Z,53.66
2022-12-03T09:22:34.048Z,56.07
2022-12-03T09:23:34.042Z,57.36
2022-12-03T09:24:34.040Z,55.91
2022-12-03T09:25:34.081Z,55.11
2022-12-03T09:26:34.028Z,55.91
2022-12-03T09:27:34.021Z,57.69
2022-12-03T09:28:34.005Z,55.27
2022-12-03T09:29:34.013Z,54.30
2022-12-03T09:30:33.981Z,56.56
2022-12-03T09:31:34.085Z,56.88
2022-12-03T09:32:34.034Z,57.04
2022-12-03T09:33:33.960Z,57.04
2022-12-03T09:34:33.948Z,55.43
2022-12-03T09:35:33.934Z,56.88
2022-12-03T09:36:33.939Z,58.33
2022-12-03T09:37:33.995Z,56.24
2022-12-03T09:38:33.924Z,56.72
2022-12-03T09:39:33.956Z,55.11
2022-12-03T09:40:33.919Z,57.04
2022-12-03T09:41:33.898Z,56.56
2022-12-03T09:42:33.897Z,55.91
2022-12-03T09:44:02.791Z,55.11
2022-12-03T09:44:34.930Z,56.40
2022-12-03T09:45:33.954Z,56.40
2022-12-03T09:46:33.956Z,56.88
2022-12-03T09:47:33.875Z,54.46
2022-12-03T09:48:33.863Z,56.07
2022-12-03T09:49:33.918Z,56.24
2022-12-03T09:50:33.821Z,55.91
2022-12-03T09:51:33.900Z,56.72
2022-12-03T09:52:33.840Z,56.24
2022-12-03T09:53:39.661Z,56.40
2022-12-03T09:54:34.868Z,57.04
2022-12-03T09:55:33.796Z,54.95
2022-12-03T09:56:33.810Z,54.14
2022-12-03T09:57:33.797Z,55.75
2022-12-03T09:58:35.067Z,58.81
2022-12-03T09:59:41.309Z,56.07
2022-12-03T10:00:33.957Z,56.07
2022-12-03T10:01:33.820Z,57.20
2022-12-03T10:02:33.765Z,56.40
2022-12-03T10:03:33.801Z,54.79
2022-12-03T10:04:33.831Z,54.62
2022-12-03T10:05:33.738Z,55.11
2022-12-03T10:06:33.805Z,56.72
2022-12-03T10:07:33.771Z,56.56
2022-12-03T10:08:33.714Z,57.52
2022-12-03T10:09:33.734Z,56.24
2022-12-03T10:10:33.703Z,56.56
2022-12-03T10:11:33.674Z,56.72
2022-12-03T10:12:33.738Z,55.75
2022-12-03T10:13:33.669Z,55.11
2022-12-03T10:14:33.665Z,56.40
2022-12-03T10:15:33.653Z,55.75
2022-12-03T10:16:33.714Z,57.04
2022-12-03T10:17:33.656Z,56.56
2022-12-03T10:18:38.327Z,58.33
2022-12-03T10:19:34.635Z,59.78
2022-12-03T10:20:33.639Z,56.88
2022-12-03T10:21:33.637Z,56.72
2022-12-03T10:22:33.618Z,57.85
2022-12-03T10:23:33.606Z,56.40
2022-12-03T10:24:33.641Z,56.24
2022-12-03T10:25:33.595Z,55.43
2022-12-03T10:26:33.595Z,56.88
2022-12-03T10:27:33.579Z,55.59
2022-12-03T10:28:33.627Z,55.27
2022-12-03T10:29:34.662Z,55.91
2022-12-03T10:30:33.680Z,56.07
2022-12-03T10:31:33.539Z,56.88
2022-12-03T10:32:33.539Z,56.40
2022-12-03T10:33:33.549Z,55.59
2022-12-03T10:34:33.531Z,55.91
2022-12-03T10:35:33.516Z,56.07
2022-12-03T10:36:33.594Z,56.07
2022-12-03T10:37:33.528Z,56.72
2022-12-03T10:38:33.496Z,56.40
2022-12-03T10:39:33.502Z,55.11
2022-12-03T10:40:33.505Z,57.52
2022-12-03T10:41:33.476Z,58.17
2022-12-03T10:42:33.535Z,56.24
2022-12-03T10:43:33.458Z,56.72
2022-12-03T10:44:33.485Z,56.40
2022-12-03T10:45:33.458Z,57.36
2022-12-03T10:46:33.566Z,56.72
2022-12-03T10:47:33.543Z,58.01
2022-12-03T10:48:33.524Z,55.59
2022-12-03T10:49:33.462Z,56.24
2022-12-03T10:50:33.427Z,56.56
2022-12-03T10:51:33.415Z,56.72
2022-12-03T10:52:33.408Z,57.04
2022-12-03T10:53:33.409Z,56.88
2022-12-03T10:54:33.457Z,57.52
2022-12-03T10:55:33.421Z,58.01
2022-12-03T10:56:33.385Z,56.72
2022-12-03T10:57:33.377Z,55.11
2022-12-03T10:58:33.369Z,56.07
2022-12-03T10:59:33.354Z,56.24
2022-12-03T11:00:33.708Z,56.40
2022-12-03T11:01:33.427Z,59.62
2022-12-03T11:02:33.347Z,58.65
2022-12-03T11:03:33.359Z,58.81
2022-12-03T11:04:33.329Z,56.88
2022-12-03T11:05:33.316Z,58.33
2022-12-03T11:06:33.361Z,56.72
2022-12-03T11:07:33.350Z,56.56
2022-12-03T11:08:33.303Z,56.24
2022-12-03T11:09:33.316Z,54.95
2022-12-03T11:10:33.285Z,55.43
2022-12-03T11:11:33.268Z,55.11
2022-12-03T11:12:33.311Z,54.95
2022-12-03T11:13:33.265Z,55.59
2022-12-03T11:14:33.286Z,55.75
2022-12-03T11:15:33.293Z,55.11
2022-12-03T11:16:33.292Z,55.75
2022-12-03T11:17:33.216Z,55.59
2022-12-03T11:18:33.272Z,56.72
2022-12-03T11:19:33.215Z,57.69
2022-12-03T11:20:33.241Z,55.75
2022-12-03T11:21:33.204Z,55.27
2022-12-03T11:22:33.199Z,56.56
2022-12-03T11:23:33.208Z,56.24
2022-12-03T11:24:33.250Z,55.27
2022-12-03T11:25:33.168Z,54.79
2022-12-03T11:26:33.170Z,57.85
2022-12-03T11:27:33.182Z,57.20
2022-12-03T11:28:33.156Z,57.52
2022-12-03T11:29:33.155Z,58.01
2022-12-03T11:30:33.209Z,57.04
2022-12-03T11:31:33.204Z,59.14
2022-12-03T11:32:33.165Z,57.36
2022-12-03T11:33:33.133Z,55.75
2022-12-03T11:34:33.145Z,56.56
2022-12-03T11:35:33.109Z,56.88
2022-12-03T11:37:00.346Z,55.59
2022-12-03T11:37:34.119Z,56.07
2022-12-03T11:38:33.105Z,54.62
2022-12-03T11:39:33.074Z,55.43
2022-12-03T11:40:39.124Z,55.91
2022-12-03T11:41:34.164Z,56.72
2022-12-03T11:42:33.050Z,55.75
2022-12-03T11:43:33.087Z,55.75
2022-12-03T11:44:33.041Z,58.33
2022-12-03T11:45:33.036Z,56.56
2022-12-03T11:46:33.157Z,56.72
2022-12-03T11:47:33.105Z,57.20
2022-12-03T11:48:33.121Z,56.40
2022-12-03T11:49:33.031Z,56.07
2022-12-03T11:50:39.433Z,56.88
2022-12-03T11:51:34.016Z,57.04
2022-12-03T11:52:33.004Z,56.56
2022-12-03T11:53:33.048Z,56.07
2022-12-03T11:54:33.005Z,55.43
2022-12-03T11:55:32.987Z,58.65
2022-12-03T11:56:32.969Z,54.79
2022-12-03T11:57:32.990Z,55.27
2022-12-03T11:58:32.994Z,57.20
2022-12-03T11:59:32.986Z,56.24
2022-12-03T12:00:32.950Z,55.27
2022-12-03T12:01:36.909Z,55.75
2022-12-03T12:02:33.975Z,56.24
2022-12-03T12:03:33.545Z,56.40
2022-12-03T12:04:32.983Z,55.59
2022-12-03T12:05:33.186Z,56.24
2022-12-03T12:06:32.894Z,55.91
2022-12-03T12:07:32.932Z,56.72
2022-12-03T12:08:32.874Z,56.88
2022-12-03T12:09:32.865Z,57.04
2022-12-03T12:10:32.858Z,56.40
2022-12-03T12:11:32.945Z,56.72
2022-12-03T12:12:32.834Z,56.56
2022-12-03T12:13:32.847Z,55.27
2022-12-03T12:14:32.844Z,55.11
2022-12-03T12:15:32.815Z,55.75
2022-12-03T12:16:32.853Z,56.07
2022-12-03T12:17:32.862Z,57.52
2022-12-03T12:18:32.825Z,57.85
2022-12-03T12:19:32.807Z,56.24
2022-12-03T12:20:32.806Z,55.43
2022-12-03T12:21:32.802Z,56.07
2022-12-03T12:22:32.769Z,55.43
2022-12-03T12:23:32.824Z,56.07
2022-12-03T12:24:32.764Z,55.27
2022-12-03T12:25:32.759Z,54.14
2022-12-03T12:26:32.765Z,54.79
2022-12-03T12:27:32.737Z,57.04
2022-12-03T12:28:32.744Z,57.52
2022-12-03T12:29:32.785Z,57.20
2022-12-03T12:30:32.746Z,55.59
2022-12-03T12:31:32.794Z,56.56
2022-12-03T12:32:32.701Z,57.69
2022-12-03T12:33:32.707Z,56.88
2022-12-03T12:34:32.674Z,57.69
2022-12-03T12:35:32.753Z,58.01
2022-12-03T12:36:32.685Z,58.01
2022-12-03T12:37:32.663Z,56.88
2022-12-03T12:38:32.654Z,57.69
2022-12-03T12:39:32.654Z,57.20
2022-12-03T12:40:32.638Z,56.40
2022-12-03T12:41:32.687Z,55.27
2022-12-03T12:42:32.642Z,55.91
2022-12-03T12:43:32.625Z,55.91
2022-12-03T12:44:32.621Z,56.07
2022-12-03T12:45:32.634Z,56.07
2022-12-03T12:46:47.663Z,56.24
2022-12-03T12:47:33.707Z,56.72
2022-12-03T12:48:32.585Z,56.72
2022-12-03T12:49:32.566Z,57.04
2022-12-03T12:50:32.575Z,55.59
2022-12-03T12:51:32.542Z,55.43
2022-12-03T12:52:32.557Z,57.36